sensor_id;sensor_type;location;lat;lon;timestamp;pressure;altitude;pressure_sealevel;temperature;humidity
51031;BME280;37058;41.442;23.240;2023-04-01T00:01:01;99812.03;;;9.79;71.20
51031;BME280;37058;41.442;23.240;2023-04-01T00:03:28;99802.69;;;9.69;72.21
51031;BME280;37058;41.442;23.240;2023-04-01T00:05:56;99807.78;;;9.55;72.15
51031;BME280;37058;41.442;23.240;2023-04-01T00:08:24;99802.94;;;9.30;72.12
51031;BME280;37058;41.442;23.240;2023-04-01T00:10:51;99804.59;;;9.04;73.34
51031;BME280;37058;41.442;23.240;2023-04-01T00:13:17;99800.66;;;8.90;74.47
51031;BME280;37058;41.442;23.240;2023-04-01T00:15:43;99800.13;;;8.93;74.59
51031;BME280;37058;41.442;23.240;2023-04-01T00:18:10;99803.72;;;8.99;73.68
51031;BME280;37058;41.442;23.240;2023-04-01T00:20:36;99803.72;;;8.99;73.41
51031;BME280;37058;41.442;23.240;2023-04-01T00:23:03;99802.13;;;9.03;73.31
51031;BME280;37058;41.442;23.240;2023-04-01T00:25:29;99811.16;;;9.08;73.63
51031;BME280;37058;41.442;23.240;2023-04-01T00:27:55;99806.03;;;9.12;73.89
51031;BME280;37058;41.442;23.240;2023-04-01T00:30:21;99805.53;;;9.15;73.87
51031;BME280;37058;41.442;23.240;2023-04-01T00:32:46;99806.97;;;9.23;73.27
51031;BME280;37058;41.442;23.240;2023-04-01T00:35:12;99806.22;;;9.32;73.03
51031;BME280;37058;41.442;23.240;2023-04-01T00:37:38;99808.22;;;9.42;73.17
51031;BME280;37058;41.442;23.240;2023-04-01T00:40:11;99808.31;;;9.52;73.09
51031;BME280;37058;41.442;23.240;2023-04-01T00:42:46;99798.47;;;9.51;73.18
51031;BME280;37058;41.442;23.240;2023-04-01T00:45:42;99800.13;;;9.52;73.41
51031;BME280;37058;41.442;23.240;2023-04-01T00:48:31;99808.81;;;9.49;73.90
51031;BME280;37058;41.442;23.240;2023-04-01T00:51:11;99797.09;;;9.49;74.16
51031;BME280;37058;41.442;23.240;2023-04-01T00:53:43;99804.94;;;9.40;73.58
51031;BME280;37058;41.442;23.240;2023-04-01T00:56:15;99798.88;;;9.33;73.38
51031;BME280;37058;41.442;23.240;2023-04-01T00:58:49;99801.56;;;9.28;73.12
51031;BME280;37058;41.442;23.240;2023-04-01T01:01:16;99792.56;;;9.27;73.00
51031;BME280;37058;41.442;23.240;2023-04-01T01:03:42;99795.28;;;9.27;72.94
51031;BME280;37058;41.442;23.240;2023-04-01T01:06:17;99782.28;;;9.35;72.67
51031;BME280;37058;41.442;23.240;2023-04-01T01:20:34;99778.66;;;9.61;72.64
51031;BME280;37058;41.442;23.240;2023-04-01T01:31:23;99773.34;;;9.12;72.77
51031;BME280;37058;41.442;23.240;2023-04-01T01:34:02;99766.19;;;9.06;73.02
51031;BME280;37058;41.442;23.240;2023-04-01T01:36:33;99759.97;;;9.10;73.31
51031;BME280;37058;41.442;23.240;2023-04-01T01:39:03;99760.03;;;9.16;73.46
51031;BME280;37058;41.442;23.240;2023-04-01T01:41:30;99764.03;;;9.08;73.40
51031;BME280;37058;41.442;23.240;2023-04-01T01:44:00;99752.13;;;9.14;73.06
51031;BME280;37058;41.442;23.240;2023-04-01T01:46:29;99754.44;;;9.00;73.69
51031;BME280;37058;41.442;23.240;2023-04-01T01:48:57;99753.47;;;8.84;74.74
51031;BME280;37058;41.442;23.240;2023-04-01T01:51:27;99749.63;;;8.80;74.83
51031;BME280;37058;41.442;23.240;2023-04-01T01:53:54;99746.94;;;8.85;74.68
51031;BME280;37058;41.442;23.240;2023-04-01T01:56:23;99746.41;;;8.88;74.66
51031;BME280;37058;41.442;23.240;2023-04-01T01:59:06;99743.22;;;8.92;74.36
51031;BME280;37058;41.442;23.240;2023-04-01T02:01:37;99743.22;;;8.92;74.31
51031;BME280;37058;41.442;23.240;2023-04-01T02:04:05;99747.81;;;8.91;74.48
51031;BME280;37058;41.442;23.240;2023-04-01T02:06:36;99744.78;;;8.87;74.94
51031;BME280;37058;41.442;23.240;2023-04-01T02:09:08;99743.69;;;8.88;74.83
51031;BME280;37058;41.442;23.240;2023-04-01T02:12:07;99733.94;;;8.93;74.66
51031;BME280;37058;41.442;23.240;2023-04-01T02:14:40;99742.34;;;8.91;74.30
51031;BME280;37058;41.442;23.240;2023-04-01T02:17:24;99737.44;;;8.88;74.09
51031;BME280;37058;41.442;23.240;2023-04-01T02:20:03;99720.28;;;8.87;74.28
51031;BME280;37058;41.442;23.240;2023-04-01T02:22:35;99711.53;;;8.85;74.26
51031;BME280;37058;41.442;23.240;2023-04-01T02:25:10;99714.31;;;8.90;74.32
51031;BME280;37058;41.442;23.240;2023-04-01T02:27:39;99702.91;;;8.94;74.15
51031;BME280;37058;41.442;23.240;2023-04-01T02:30:06;99697.34;;;8.83;74.81
51031;BME280;37058;41.442;23.240;2023-04-01T02:32:33;99700.56;;;8.75;75.18
51031;BME280;37058;41.442;23.240;2023-04-01T02:35:11;99701.38;;;8.76;75.46
51031;BME280;37058;41.442;23.240;2023-04-01T02:37:39;99707.16;;;8.79;75.68
51031;BME280;37058;41.442;23.240;2023-04-01T02:40:11;99698.50;;;8.87;75.38
51031;BME280;37058;41.442;23.240;2023-04-01T02:42:38;99699.03;;;8.84;75.33
51031;BME280;37058;41.442;23.240;2023-04-01T02:45:06;99719.19;;;8.88;75.66
51031;BME280;37058;41.442;23.240;2023-04-01T02:47:32;99706.56;;;8.77;76.24
51031;BME280;37058;41.442;23.240;2023-04-01T02:49:58;99697.06;;;8.80;76.07
51031;BME280;37058;41.442;23.240;2023-04-01T02:52:29;99698.22;;;8.84;76.05
51031;BME280;37058;41.442;23.240;2023-04-01T02:54:56;99707.19;;;8.84;76.19
51031;BME280;37058;41.442;23.240;2023-04-01T02:57:23;99703.38;;;8.85;75.69
51031;BME280;37058;41.442;23.240;2023-04-01T02:59:49;99681.28;;;8.82;76.01
51031;BME280;37058;41.442;23.240;2023-04-01T03:02:16;99701.69;;;8.79;76.07
51031;BME280;37058;41.442;23.240;2023-04-01T03:04:42;99725.25;;;8.63;77.32
51031;BME280;37058;41.442;23.240;2023-04-01T03:07:09;99701.44;;;8.54;78.62
51031;BME280;37058;41.442;23.240;2023-04-01T03:09:38;99684.09;;;8.60;79.01
51031;BME280;37058;41.442;23.240;2023-04-01T03:12:05;99696.09;;;8.64;79.04
51031;BME280;37058;41.442;23.240;2023-04-01T03:14:31;99702.63;;;8.63;79.47
51031;BME280;37058;41.442;23.240;2023-04-01T03:16:57;99695.84;;;8.65;79.44
51031;BME280;37058;41.442;23.240;2023-04-01T03:19:23;99700.78;;;8.68;79.59
51031;BME280;37058;41.442;23.240;2023-04-01T03:21:48;99703.28;;;8.75;79.31
51031;BME280;37058;41.442;23.240;2023-04-01T03:24:14;99699.03;;;8.84;79.19
51031;BME280;37058;41.442;23.240;2023-04-01T03:26:40;99694.19;;;8.92;78.76
51031;BME280;37058;41.442;23.240;2023-04-01T03:29:06;99702.13;;;8.98;78.33
51031;BME280;37058;41.442;23.240;2023-04-01T03:31:32;99689.34;;;9.04;78.03
51031;BME280;37058;41.442;23.240;2023-04-01T03:33:58;99676.75;;;8.93;78.21
51031;BME280;37058;41.442;23.240;2023-04-01T03:36:24;99693.09;;;8.93;78.46
51031;BME280;37058;41.442;23.240;2023-04-01T03:38:50;99687.94;;;8.96;78.07
51031;BME280;37058;41.442;23.240;2023-04-01T03:41:17;99687.56;;;8.82;78.68
51031;BME280;37058;41.442;23.240;2023-04-01T03:43:43;99692.47;;;8.85;78.61
51031;BME280;37058;41.442;23.240;2023-04-01T03:46:09;99683.22;;;8.81;78.54
51031;BME280;37058;41.442;23.240;2023-04-01T03:48:35;99682.84;;;8.73;78.95
51031;BME280;37058;41.442;23.240;2023-04-01T03:51:01;99678.50;;;8.72;78.35
51031;BME280;37058;41.442;23.240;2023-04-01T03:53:27;99672.84;;;8.51;78.90
51031;BME280;37058;41.442;23.240;2023-04-01T03:55:53;99677.66;;;8.44;79.59
51031;BME280;37058;41.442;23.240;2023-04-01T03:58:19;99671.66;;;8.42;80.38
51031;BME280;37058;41.442;23.240;2023-04-01T04:00:46;99666.50;;;8.45;80.25
51031;BME280;37058;41.442;23.240;2023-04-01T04:03:12;99658.63;;;8.44;80.27
51031;BME280;37058;41.442;23.240;2023-04-01T04:05:37;99663.75;;;8.40;80.54
51031;BME280;37058;41.442;23.240;2023-04-01T04:08:03;99649.66;;;8.43;80.24
51031;BME280;37058;41.442;23.240;2023-04-01T04:10:29;99644.25;;;8.49;80.33
51031;BME280;37058;41.442;23.240;2023-04-01T04:12:56;99638.56;;;8.55;80.31
51031;BME280;37058;41.442;23.240;2023-04-01T04:15:22;99638.56;;;8.55;80.41
51031;BME280;37058;41.442;23.240;2023-04-01T04:17:48;99644.06;;;8.60;80.08
51031;BME280;37058;41.442;23.240;2023-04-01T04:20:14;99640.31;;;8.66;80.00
51031;BME280;37058;41.442;23.240;2023-04-01T04:22:40;99639.19;;;8.62;80.12
51031;BME280;37058;41.442;23.240;2023-04-01T04:25:07;99641.19;;;8.72;79.83
51031;BME280;37058;41.442;23.240;2023-04-01T04:27:34;99649.41;;;8.77;79.10
51031;BME280;37058;41.442;23.240;2023-04-01T04:30:00;99648.63;;;8.82;78.81
51031;BME280;37058;41.442;23.240;2023-04-01T04:32:26;99646.72;;;8.82;79.06
51031;BME280;37058;41.442;23.240;2023-04-01T04:34:52;99638.78;;;8.81;79.40
51031;BME280;37058;41.442;23.240;2023-04-01T04:37:18;99639.63;;;8.81;79.46
51031;BME280;37058;41.442;23.240;2023-04-01T04:39:44;99629.28;;;8.83;79.47
51031;BME280;37058;41.442;23.240;2023-04-01T04:42:09;99636.44;;;8.89;79.66
51031;BME280;37058;41.442;23.240;2023-04-01T04:44:35;99635.38;;;8.96;79.25
51031;BME280;37058;41.442;23.240;2023-04-01T04:47:02;99626.44;;;9.00;78.33
51031;BME280;37058;41.442;23.240;2023-04-01T04:49:28;99636.53;;;9.05;78.07
51031;BME280;37058;41.442;23.240;2023-04-01T04:51:53;99643.66;;;9.11;78.27
51031;BME280;37058;41.442;23.240;2023-04-01T04:54:19;99651.19;;;9.36;77.04
51031;BME280;37058;41.442;23.240;2023-04-01T04:56:45;99645.31;;;10.28;74.41
51031;BME280;37058;41.442;23.240;2023-04-01T04:59:11;99639.31;;;11.48;68.38
51031;BME280;37058;41.442;23.240;2023-04-01T05:01:38;99634.34;;;11.66;66.99
51031;BME280;37058;41.442;23.240;2023-04-01T05:04:04;99631.03;;;11.69;66.34
51031;BME280;37058;41.442;23.240;2023-04-01T05:06:30;99631.44;;;11.16;68.16
51031;BME280;37058;41.442;23.240;2023-04-01T05:08:57;99630.91;;;10.78;69.95
51031;BME280;37058;41.442;23.240;2023-04-01T05:11:23;99633.38;;;10.59;70.87
51031;BME280;37058;41.442;23.240;2023-04-01T05:13:51;99633.34;;;10.44;71.67
51031;BME280;37058;41.442;23.240;2023-04-01T05:16:19;99638.19;;;10.27;73.21
51031;BME280;37058;41.442;23.240;2023-04-01T05:18:47;99640.38;;;10.19;73.43
51031;BME280;37058;41.442;23.240;2023-04-01T05:21:14;99621.22;;;9.99;74.13
51031;BME280;37058;41.442;23.240;2023-04-01T05:23:41;99627.75;;;9.93;74.93
51031;BME280;37058;41.442;23.240;2023-04-01T05:26:11;99621.75;;;10.01;74.48
51031;BME280;37058;41.442;23.240;2023-04-01T05:28:37;99615.78;;;10.04;74.52
51031;BME280;37058;41.442;23.240;2023-04-01T05:31:05;99607.06;;;10.12;74.23
51031;BME280;37058;41.442;23.240;2023-04-01T05:33:31;99599.97;;;10.11;74.22
51031;BME280;37058;41.442;23.240;2023-04-01T05:36:10;99599.97;;;10.11;74.19
51031;BME280;37058;41.442;23.240;2023-04-01T05:38:36;99602.16;;;10.14;74.59
51031;BME280;37058;41.442;23.240;2023-04-01T05:41:03;99581.16;;;10.20;75.08
51031;BME280;37058;41.442;23.240;2023-04-01T05:43:29;99590.22;;;10.31;74.90
51031;BME280;37058;41.442;23.240;2023-04-01T05:45:56;99587.19;;;10.32;75.19
51031;BME280;37058;41.442;23.240;2023-04-01T05:48:22;99590.75;;;10.38;76.10
51031;BME280;37058;41.442;23.240;2023-04-01T05:50:48;99597.31;;;10.68;76.17
51031;BME280;37058;41.442;23.240;2023-04-01T05:53:14;99586.91;;;11.11;75.02
51031;BME280;37058;41.442;23.240;2023-04-01T05:55:40;99587.31;;;11.59;73.25
51031;BME280;37058;41.442;23.240;2023-04-01T05:58:06;99569.06;;;12.04;71.43
51031;BME280;37058;41.442;23.240;2023-04-01T06:00:32;99552.00;;;12.56;69.06
51031;BME280;37058;41.442;23.240;2023-04-01T06:03:00;99529.41;;;12.99;67.66
51031;BME280;37058;41.442;23.240;2023-04-01T06:05:42;99511.41;;;13.41;66.03
51031;BME280;37058;41.442;23.240;2023-04-01T06:08:18;99509.34;;;13.52;64.25
51031;BME280;37058;41.442;23.240;2023-04-01T06:26:25;99515.81;;;16.53;55.83
51031;BME280;37058;41.442;23.240;2023-04-01T06:46:41;99474.34;;;16.35;56.62
51031;BME280;37058;41.442;23.240;2023-04-01T06:52:41;99480.44;;;16.01;58.86
51031;BME280;37058;41.442;23.240;2023-04-01T06:55:52;99472.28;;;15.96;59.09
51031;BME280;37058;41.442;23.240;2023-04-01T06:58:31;99484.56;;;15.76;60.06
51031;BME280;37058;41.442;23.240;2023-04-01T07:01:04;99469.91;;;15.53;60.34
51031;BME280;37058;41.442;23.240;2023-04-01T07:03:38;99467.19;;;15.11;61.34
51031;BME280;37058;41.442;23.240;2023-04-01T07:06:13;99456.81;;;14.94;61.79
51031;BME280;37058;41.442;23.240;2023-04-01T07:08:43;99460.78;;;14.88;62.14
51031;BME280;37058;41.442;23.240;2023-04-01T07:11:23;99468.31;;;14.83;62.57
51031;BME280;37058;41.442;23.240;2023-04-01T07:13:59;99476.25;;;14.84;63.43
51031;BME280;37058;41.442;23.240;2023-04-01T07:16:32;99479.09;;;14.79;63.72
51031;BME280;37058;41.442;23.240;2023-04-01T07:19:51;99468.19;;;14.74;64.37
51031;BME280;37058;41.442;23.240;2023-04-01T07:22:42;99456.28;;;14.65;65.60
51031;BME280;37058;41.442;23.240;2023-04-01T07:25:35;99457.97;;;14.61;66.28
51031;BME280;37058;41.442;23.240;2023-04-01T07:28:06;99447.72;;;14.66;66.20
51031;BME280;37058;41.442;23.240;2023-04-01T07:42:02;99439.88;;;14.60;65.61
51031;BME280;37058;41.442;23.240;2023-04-01T07:48:55;99428.19;;;14.54;66.33
51031;BME280;37058;41.442;23.240;2023-04-01T07:54:26;99422.03;;;14.43;67.30
51031;BME280;37058;41.442;23.240;2023-04-01T07:57:35;99429.56;;;14.51;67.25
51031;BME280;37058;41.442;23.240;2023-04-01T08:09:26;99401.72;;;14.72;65.50
51031;BME280;37058;41.442;23.240;2023-04-01T08:12:31;99398.66;;;14.73;65.47
51031;BME280;37058;41.442;23.240;2023-04-01T08:15:24;99392.16;;;14.83;65.73
51031;BME280;37058;41.442;23.240;2023-04-01T08:21:08;99424.44;;;15.05;65.01
51031;BME280;37058;41.442;23.240;2023-04-01T08:23:44;99411.88;;;15.13;65.02
51031;BME280;37058;41.442;23.240;2023-04-01T08:26:39;99389.66;;;15.23;64.34
51031;BME280;37058;41.442;23.240;2023-04-01T08:32:27;99379.72;;;15.50;63.25
51031;BME280;37058;41.442;23.240;2023-04-01T08:35:18;99362.97;;;15.60;62.60
51031;BME280;37058;41.442;23.240;2023-04-01T08:37:48;99359.59;;;15.63;62.29
51031;BME280;37058;41.442;23.240;2023-04-01T08:46:06;99351.19;;;15.82;62.41
51031;BME280;37058;41.442;23.240;2023-04-01T08:49:26;99341.03;;;15.91;61.98
51031;BME280;37058;41.442;23.240;2023-04-01T08:52:06;99346.94;;;15.98;61.51
51031;BME280;37058;41.442;23.240;2023-04-01T09:07:09;99303.50;;;16.35;59.13
51031;BME280;37058;41.442;23.240;2023-04-01T09:19:02;99307.94;;;16.45;58.74
51031;BME280;37058;41.442;23.240;2023-04-01T09:22:21;99314.28;;;16.54;57.92
51031;BME280;37058;41.442;23.240;2023-04-01T09:30:33;99299.22;;;16.60;56.70
51031;BME280;37058;41.442;23.240;2023-04-01T09:37:04;99307.34;;;16.65;55.30
51031;BME280;37058;41.442;23.240;2023-04-01T09:43:33;99293.59;;;16.74;55.05
51031;BME280;37058;41.442;23.240;2023-04-01T09:52:20;99278.50;;;16.72;56.35
51031;BME280;37058;41.442;23.240;2023-04-01T10:27:47;99222.63;;;17.96;51.90
51031;BME280;37058;41.442;23.240;2023-04-01T10:44:53;99179.06;;;18.53;52.10
51031;BME280;37058;41.442;23.240;2023-04-01T10:47:55;99176.59;;;18.60;51.05
51031;BME280;37058;41.442;23.240;2023-04-01T10:55:12;99169.38;;;18.89;46.66
51031;BME280;37058;41.442;23.240;2023-04-01T11:24:03;99100.44;;;19.75;42.84
51031;BME280;37058;41.442;23.240;2023-04-01T12:09:16;99001.66;;;20.31;44.04
51031;BME280;37058;41.442;23.240;2023-04-01T12:14:44;98993.88;;;20.37;44.66
51031;BME280;37058;41.442;23.240;2023-04-01T12:17:49;98993.66;;;20.30;42.58
51031;BME280;37058;41.442;23.240;2023-04-01T12:20:59;98990.44;;;20.28;43.04
51031;BME280;37058;41.442;23.240;2023-04-01T12:23:55;98989.34;;;20.17;43.85
51031;BME280;37058;41.442;23.240;2023-04-01T12:44:06;99113.75;;;19.36;54.67
51031;BME280;37058;41.442;23.240;2023-04-01T12:49:53;99139.59;;;18.94;64.19
51031;BME280;37058;41.442;23.240;2023-04-01T12:55:32;99201.75;;;18.08;64.83
51031;BME280;37058;41.442;23.240;2023-04-01T13:04:33;99204.44;;;17.05;73.19
51031;BME280;37058;41.442;23.240;2023-04-01T13:07:16;99216.72;;;16.73;73.74
51031;BME280;37058;41.442;23.240;2023-04-01T13:10:13;99220.59;;;16.54;72.79
51031;BME280;37058;41.442;23.240;2023-04-01T13:15:52;99236.91;;;16.33;74.45
51031;BME280;37058;41.442;23.240;2023-04-01T13:22:02;99239.59;;;16.16;78.40
51031;BME280;37058;41.442;23.240;2023-04-01T13:27:40;99263.81;;;15.96;83.14
51031;BME280;37058;41.442;23.240;2023-04-01T13:33:11;99279.78;;;15.86;85.79
51031;BME280;37058;41.442;23.240;2023-04-01T13:45:08;99231.41;;;15.17;90.64
51031;BME280;37058;41.442;23.240;2023-04-01T13:48:18;99212.69;;;15.05;91.22
51031;BME280;37058;41.442;23.240;2023-04-01T14:09:08;99182.16;;;15.29;92.27
51031;BME280;37058;41.442;23.240;2023-04-01T14:15:25;99163.59;;;15.44;90.47
51031;BME280;37058;41.442;23.240;2023-04-01T14:30:29;99177.28;;;15.57;95.36
51031;BME280;37058;41.442;23.240;2023-04-01T14:50:20;99166.38;;;15.21;91.41
51031;BME280;37058;41.442;23.240;2023-04-01T14:55:58;99167.25;;;15.08;91.88
51031;BME280;37058;41.442;23.240;2023-04-01T14:58:45;99181.94;;;15.03;90.10
51031;BME280;37058;41.442;23.240;2023-04-01T15:01:57;99177.09;;;15.00;89.10
51031;BME280;37058;41.442;23.240;2023-04-01T15:08:09;99168.88;;;15.09;90.88
51031;BME280;37058;41.442;23.240;2023-04-01T15:24:46;99149.28;;;15.55;85.13
51031;BME280;37058;41.442;23.240;2023-04-01T15:27:32;99157.56;;;15.64;84.39
51031;BME280;37058;41.442;23.240;2023-04-01T15:30:37;99159.09;;;15.70;85.52
51031;BME280;37058;41.442;23.240;2023-04-01T15:36:49;99157.16;;;15.79;82.48
51031;BME280;37058;41.442;23.240;2023-04-01T15:48:05;99167.41;;;15.88;81.86
51031;BME280;37058;41.442;23.240;2023-04-01T15:51:01;99176.66;;;15.92;83.23
51031;BME280;37058;41.442;23.240;2023-04-01T16:05:43;99197.94;;;16.17;80.75
51031;BME280;37058;41.442;23.240;2023-04-01T16:14:58;99215.28;;;16.18;78.91
51031;BME280;37058;41.442;23.240;2023-04-01T16:20:45;99226.72;;;16.02;82.41
51031;BME280;37058;41.442;23.240;2023-04-01T16:23:47;99228.66;;;15.93;83.49
51031;BME280;37058;41.442;23.240;2023-04-01T16:26:37;99230.75;;;15.88;83.45
51031;BME280;37058;41.442;23.240;2023-04-01T16:29:17;99223.72;;;15.81;84.18
51031;BME280;37058;41.442;23.240;2023-04-01T16:34:47;99227.38;;;15.68;85.38
51031;BME280;37058;41.442;23.240;2023-04-01T16:37:50;99236.56;;;15.64;85.07
51031;BME280;37058;41.442;23.240;2023-04-01T16:44:09;99238.00;;;15.38;86.20
51031;BME280;37058;41.442;23.240;2023-04-01T16:46:27;99246.41;;;15.33;86.83
51031;BME280;37058;41.442;23.240;2023-04-01T16:52:40;99251.75;;;15.16;88.15
51031;BME280;37058;41.442;23.240;2023-04-01T16:55:20;99258.53;;;15.10;88.55
51031;BME280;37058;41.442;23.240;2023-04-01T16:57:52;99260.38;;;15.01;89.95
51031;BME280;37058;41.442;23.240;2023-04-01T17:00:48;99261.50;;;15.00;90.23
51031;BME280;37058;41.442;23.240;2023-04-01T17:06:17;99278.75;;;14.91;90.57
51031;BME280;37058;41.442;23.240;2023-04-01T17:12:17;99281.09;;;14.84;90.07
51031;BME280;37058;41.442;23.240;2023-04-01T17:14:48;99277.84;;;14.82;89.23
51031;BME280;37058;41.442;23.240;2023-04-01T17:17:43;99290.56;;;14.78;89.24
51031;BME280;37058;41.442;23.240;2023-04-01T17:23:24;99272.88;;;14.57;89.93
51031;BME280;37058;41.442;23.240;2023-04-01T17:35:17;99291.34;;;14.09;92.04
51031;BME280;37058;41.442;23.240;2023-04-01T17:47:00;99295.78;;;13.92;93.81
51031;BME280;37058;41.442;23.240;2023-04-01T17:54:45;99309.19;;;13.79;96.34
51031;BME280;37058;41.442;23.240;2023-04-01T17:57:50;99318.84;;;13.77;95.45
51031;BME280;37058;41.442;23.240;2023-04-01T18:03:42;99323.16;;;13.64;97.47
51031;BME280;37058;41.442;23.240;2023-04-01T18:20:27;99335.44;;;13.34;96.53
51031;BME280;37058;41.442;23.240;2023-04-01T18:23:12;99345.06;;;13.31;96.99
51031;BME280;37058;41.442;23.240;2023-04-01T18:25:44;99343.78;;;13.23;97.45
51031;BME280;37058;41.442;23.240;2023-04-01T18:36:49;99348.13;;;12.87;100.00
51031;BME280;37058;41.442;23.240;2023-04-01T18:39:39;99355.81;;;12.85;100.00
51031;BME280;37058;41.442;23.240;2023-04-01T18:42:40;99350.34;;;12.85;100.00
51031;BME280;37058;41.442;23.240;2023-04-01T18:45:33;99347.53;;;12.90;100.00
51031;BME280;37058;41.442;23.240;2023-04-01T18:48:28;99353.59;;;12.87;100.00
51031;BME280;37058;41.442;23.240;2023-04-01T18:51:25;99344.34;;;12.83;100.00
51031;BME280;37058;41.442;23.240;2023-04-01T18:54:02;99359.38;;;12.85;100.00
51031;BME280;37058;41.442;23.240;2023-04-01T18:56:37;99377.50;;;12.81;100.00
51031;BME280;37058;41.442;23.240;2023-04-01T18:59:32;99380.75;;;12.83;100.00
51031;BME280;37058;41.442;23.240;2023-04-01T19:05:20;99396.84;;;12.66;97.33
51031;BME280;37058;41.442;23.240;2023-04-01T19:07:54;99403.50;;;12.60;96.99
51031;BME280;37058;41.442;23.240;2023-04-01T19:20:03;99434.88;;;12.14;99.81
51031;BME280;37058;41.442;23.240;2023-04-01T19:23:05;99443.19;;;12.04;99.79
51031;BME280;37058;41.442;23.240;2023-04-01T19:25:54;99449.53;;;11.94;99.48
51031;BME280;37058;41.442;23.240;2023-04-01T19:37:40;99442.06;;;12.05;100.00
51031;BME280;37058;41.442;23.240;2023-04-01T19:49:25;99482.03;;;12.06;95.83
51031;BME280;37058;41.442;23.240;2023-04-01T19:52:17;99485.38;;;11.98;96.48
51031;BME280;37058;41.442;23.240;2023-04-01T19:58:20;99478.56;;;11.90;95.33
51031;BME280;37058;41.442;23.240;2023-04-01T20:00:52;99482.38;;;11.94;92.82
51031;BME280;37058;41.442;23.240;2023-04-01T20:03:58;99483.50;;;11.93;92.29
51031;BME280;37058;41.442;23.240;2023-04-01T20:09:53;99493.06;;;11.96;93.55
51031;BME280;37058;41.442;23.240;2023-04-01T20:14:57;99498.81;;;11.94;92.94
51031;BME280;37058;41.442;23.240;2023-04-01T20:17:45;99496.06;;;11.94;92.73
51031;BME280;37058;41.442;23.240;2023-04-01T20:25:32;99508.94;;;11.93;92.37
51031;BME280;37058;41.442;23.240;2023-04-01T20:28:09;99514.13;;;11.90;92.75
51031;BME280;37058;41.442;23.240;2023-04-01T20:51:14;99532.47;;;11.89;86.54
51031;BME280;37058;41.442;23.240;2023-04-01T20:53:57;99536.88;;;11.90;86.23
51031;BME280;37058;41.442;23.240;2023-04-01T20:56:36;99546.69;;;11.91;86.61
51031;BME280;37058;41.442;23.240;2023-04-01T21:03:03;99544.00;;;11.86;86.94
51031;BME280;37058;41.442;23.240;2023-04-01T21:33:37;99561.94;;;11.43;88.35
51031;BME280;37058;41.442;23.240;2023-04-01T21:39:47;99584.16;;;11.16;89.15
51031;BME280;37058;41.442;23.240;2023-04-01T21:45:22;99582.00;;;11.02;88.85
51031;BME280;37058;41.442;23.240;2023-04-01T22:00:29;99590.22;;;10.92;87.98
51031;BME280;37058;41.442;23.240;2023-04-01T22:06:40;99597.03;;;10.95;88.08
51031;BME280;37058;41.442;23.240;2023-04-01T22:09:29;99600.59;;;10.95;87.68
51031;BME280;37058;41.442;23.240;2023-04-01T22:12:18;99608.53;;;10.97;86.55
51031;BME280;37058;41.442;23.240;2023-04-01T22:17:59;99608.22;;;11.03;84.08
51031;BME280;37058;41.442;23.240;2023-04-01T22:32:49;99618.88;;;10.33;86.28
51031;BME280;37058;41.442;23.240;2023-04-01T22:36:28;99602.22;;;10.30;85.53
51031;BME280;37058;41.442;23.240;2023-04-01T22:38:43;99617.72;;;10.24;85.70
51031;BME280;37058;41.442;23.240;2023-04-01T22:43:55;99624.00;;;10.19;85.91
51031;BME280;37058;41.442;23.240;2023-04-01T22:46:53;99614.13;;;10.03;85.55
51031;BME280;37058;41.442;23.240;2023-04-01T22:52:38;99607.88;;;10.08;85.46
51031;BME280;37058;41.442;23.240;2023-04-01T22:55:28;99616.88;;;10.08;86.02
51031;BME280;37058;41.442;23.240;2023-04-01T22:58:04;99611.44;;;10.08;85.84
51031;BME280;37058;41.442;23.240;2023-04-01T23:03:10;99608.97;;;10.12;86.56
51031;BME280;37058;41.442;23.240;2023-04-01T23:05:52;99613.59;;;10.11;85.90
51031;BME280;37058;41.442;23.240;2023-04-01T23:08:54;99618.25;;;10.16;85.27
51031;BME280;37058;41.442;23.240;2023-04-01T23:12:13;99621.81;;;10.16;85.66
51031;BME280;37058;41.442;23.240;2023-04-01T23:14:54;99626.69;;;10.09;85.85
51031;BME280;37058;41.442;23.240;2023-04-01T23:26:25;99627.81;;;10.13;85.40
51031;BME280;37058;41.442;23.240;2023-04-01T23:28:56;99637.34;;;10.06;86.41
51031;BME280;37058;41.442;23.240;2023-04-01T23:32:01;99638.09;;;9.91;85.72
51031;BME280;37058;41.442;23.240;2023-04-01T23:34:35;99631.25;;;9.83;85.65
51031;BME280;37058;41.442;23.240;2023-04-01T23:37:12;99634.78;;;9.84;86.05
51031;BME280;37058;41.442;23.240;2023-04-01T23:39:45;99642.44;;;9.87;85.85
51031;BME280;37058;41.442;23.240;2023-04-01T23:42:32;99636.41;;;9.85;85.47
51031;BME280;37058;41.442;23.240;2023-04-01T23:45:15;99642.72;;;9.85;85.52
51031;BME280;37058;41.442;23.240;2023-04-01T23:47:43;99649.00;;;9.91;85.56
51031;BME280;37058;41.442;23.240;2023-04-01T23:52:48;99639.50;;;9.98;84.92
51031;BME280;37058;41.442;23.240;2023-04-01T23:55:25;99629.66;;;9.97;84.51
51031;BME280;37058;41.442;23.240;2023-04-01T23:58:14;99629.66;;;9.97;84.52
